createdAt,value
2017-12-15T14:19:36.283Z,5.12
2017-12-15T14:20:08.816Z,4.94
2017-12-15T14:20:41.311Z,4.78
2017-12-15T14:21:13.796Z,4.64
2017-12-15T14:21:47.651Z,4.51
2017-12-15T14:22:22.085Z,4.34
2017-12-15T14:22:55.147Z,4.17
2017-12-15T14:23:28.827Z,4.07
2017-12-15T14:24:01.544Z,3.97
2017-12-15T14:24:34.075Z,3.88
2017-12-15T14:25:06.591Z,3.81
2017-12-15T14:25:39.086Z,3.74
2017-12-15T14:26:11.569Z,3.68
2017-12-15T14:26:45.824Z,3.63
2017-12-15T14:27:18.308Z,3.47
2017-12-15T14:27:50.809Z,3.41
2017-12-15T14:28:23.307Z,3.34
2017-12-15T14:28:56.144Z,3.28
2017-12-15T14:29:28.627Z,3.23
2017-12-15T14:30:01.125Z,3.14
2017-12-15T14:30:33.635Z,3.10
2017-12-15T14:31:06.164Z,3.06
2017-12-15T14:31:39.064Z,3.01
2017-12-15T14:32:11.764Z,2.97
2017-12-15T14:32:51.941Z,2.90
2017-12-15T14:33:24.773Z,2.79
2017-12-15T14:33:57.247Z,2.75
2017-12-15T14:34:29.755Z,2.74
2017-12-15T14:35:02.251Z,2.69
2017-12-15T14:35:34.746Z,2.68
2017-12-15T14:36:08.012Z,2.67
2017-12-15T14:36:40.687Z,2.64
2017-12-15T14:37:13.722Z,2.64
2017-12-15T14:37:46.254Z,2.62
2017-12-15T14:38:18.831Z,2.62
2017-12-15T14:38:51.311Z,2.60
2017-12-15T14:39:23.815Z,2.60
2017-12-15T14:39:56.294Z,2.60
2017-12-15T14:40:28.790Z,2.59
2017-12-15T14:41:01.266Z,2.57
2017-12-15T14:41:33.766Z,2.57
2017-12-15T14:42:06.332Z,2.54
2017-12-15T14:42:39.130Z,2.51
2017-12-15T14:43:12.177Z,2.50
2017-12-15T14:43:45.865Z,2.48
2017-12-15T14:44:18.819Z,2.46
2017-12-15T14:44:51.348Z,2.44
2017-12-15T14:45:23.862Z,2.43
2017-12-15T14:45:56.338Z,2.42
2017-12-15T14:46:28.815Z,2.39
2017-12-15T14:47:01.334Z,2.37
2017-12-15T14:47:33.875Z,2.35
2017-12-15T14:48:06.426Z,2.33
2017-12-15T14:48:43.908Z,2.34
2017-12-15T14:49:13.335Z,2.31
2017-12-15T14:51:46.035Z,2.05
2017-12-15T14:54:18.642Z,1.80
2017-12-15T14:56:51.212Z,1.67
2017-12-15T14:59:23.753Z,1.60
2017-12-15T15:01:56.256Z,1.58
2017-12-15T15:04:28.748Z,1.57
2017-12-15T15:07:01.259Z,1.57
2017-12-15T15:09:33.765Z,1.45
2017-12-15T15:12:06.371Z,1.42
2017-12-15T15:14:39.166Z,1.43
2017-12-15T15:17:11.887Z,1.41
2017-12-15T15:19:44.478Z,1.36
2017-12-15T15:22:17.056Z,1.30
2017-12-15T15:24:49.713Z,1.24
2017-12-15T15:27:22.319Z,1.11
2017-12-15T15:29:55.012Z,1.01
2017-12-15T15:32:27.511Z,0.95
2017-12-15T15:35:01.500Z,0.86
2017-12-15T15:37:34.015Z,0.78
2017-12-15T15:40:06.610Z,0.73
2017-12-15T15:42:39.387Z,0.70
2017-12-15T15:45:12.360Z,0.66
2017-12-15T15:47:45.239Z,0.61
2017-12-15T15:50:17.854Z,0.47
2017-12-15T15:52:50.512Z,0.44
2017-12-15T15:55:23.268Z,0.45
2017-12-15T15:57:55.873Z,0.48
2017-12-15T16:00:29.450Z,0.50
2017-12-15T16:03:02.040Z,0.42
2017-12-15T16:05:34.571Z,0.36
2017-12-15T16:08:07.475Z,0.35
2017-12-15T16:10:40.938Z,0.28
2017-12-15T16:13:13.588Z,0.18
2017-12-15T16:15:46.222Z,0.07
2017-12-15T16:18:18.888Z,0.05
2017-12-15T16:20:51.563Z,0.17
2017-12-15T16:23:24.434Z,0.24
2017-12-15T16:25:56.911Z,0.31
2017-12-15T16:28:29.437Z,0.34
2017-12-15T16:31:01.929Z,0.30
2017-12-15T16:33:34.439Z,0.29
2017-12-15T16:36:06.950Z,0.30
2017-12-15T16:38:40.712Z,0.27
2017-12-15T16:41:13.871Z,0.21
2017-12-15T16:43:46.551Z,0.17
2017-12-15T16:46:19.660Z,0.16
2017-12-15T16:48:52.364Z,0.13
2017-12-15T16:51:25.019Z,0.15
2017-12-15T16:53:57.531Z,0.24
2017-12-15T16:56:30.015Z,0.27
2017-12-15T16:59:02.528Z,0.27
2017-12-15T17:01:35.008Z,0.23
2017-12-15T17:04:08.313Z,0.20
2017-12-15T17:06:41.209Z,0.07
2017-12-15T17:09:14.581Z,0.06
2017-12-15T17:11:47.217Z,0.07
2017-12-15T17:14:19.834Z,-0.02
2017-12-15T17:16:52.351Z,-0.04
2017-12-15T17:19:24.857Z,-0.01
2017-12-15T17:21:57.347Z,0.01
2017-12-15T17:24:29.937Z,-0.04
2017-12-15T17:27:02.432Z,-0.11
2017-12-15T17:29:35.040Z,-0.10
2017-12-15T17:32:07.675Z,-0.05
2017-12-15T17:34:41.022Z,-0.05
2017-12-15T17:37:13.772Z,0.00
2017-12-15T17:39:46.621Z,0.06
2017-12-15T17:42:19.313Z,0.08
2017-12-15T17:44:51.949Z,0.07
2017-12-15T17:47:24.453Z,0.08
2017-12-15T17:49:56.964Z,0.08
2017-12-15T17:52:29.452Z,0.09
2017-12-15T17:55:01.960Z,0.12
2017-12-15T17:57:34.440Z,0.13
2017-12-15T18:00:07.109Z,-0.02
2017-12-15T18:02:40.232Z,-0.09
2017-12-15T18:05:13.240Z,-0.15
2017-12-15T18:07:45.921Z,-0.19
2017-12-15T18:10:18.521Z,-0.22
2017-12-15T18:12:51.089Z,-0.29
2017-12-15T18:15:23.760Z,-0.35
2017-12-15T18:17:56.299Z,-0.48
2017-12-15T18:20:28.816Z,-0.65
2017-12-15T18:23:02.256Z,-0.82
2017-12-15T18:25:34.770Z,-0.80
2017-12-15T18:28:09.233Z,-0.77
2017-12-15T18:30:41.775Z,-0.71
2017-12-15T18:33:14.256Z,-0.70
2017-12-15T18:35:46.766Z,-0.64
2017-12-15T18:38:19.312Z,-0.62
2017-12-15T18:40:51.873Z,-0.59
2017-12-15T18:43:24.371Z,-0.50
2017-12-15T18:45:56.893Z,-0.45
2017-12-15T18:48:29.399Z,-0.41
2017-12-15T18:51:01.905Z,-0.36
2017-12-15T18:53:34.391Z,-0.30
2017-12-15T18:56:06.966Z,-0.30
2017-12-15T18:58:39.503Z,-0.30
2017-12-15T19:01:12.011Z,-0.25
2017-12-15T19:03:44.505Z,-0.22
2017-12-15T19:06:17.064Z,-0.19
2017-12-15T19:08:49.569Z,-0.21
2017-12-15T19:11:22.083Z,-0.20
2017-12-15T19:13:54.620Z,-0.25
2017-12-15T19:16:27.863Z,-0.27
2017-12-15T19:19:00.389Z,-0.23
2017-12-15T19:21:32.900Z,-0.20
2017-12-15T19:24:05.386Z,-0.22
2017-12-15T19:26:40.272Z,-0.24
2017-12-15T19:29:12.831Z,-0.35
2017-12-15T19:31:45.774Z,-0.39
2017-12-15T19:34:18.284Z,-0.46
2017-12-15T19:36:50.809Z,-0.49
2017-12-15T19:39:23.290Z,-0.42
2017-12-15T19:41:55.815Z,-0.42
2017-12-15T19:44:28.326Z,-0.36
2017-12-15T19:47:00.982Z,-0.30
2017-12-15T19:49:33.608Z,-0.27
2017-12-15T19:52:06.140Z,-0.26
2017-12-15T19:54:38.647Z,-0.21
2017-12-15T19:57:11.159Z,-0.15
2017-12-15T19:59:43.653Z,-0.11
2017-12-15T20:02:16.163Z,-0.15
2017-12-15T20:04:49.253Z,-0.18
2017-12-15T20:07:21.771Z,-0.23
2017-12-15T20:09:54.259Z,-0.18
2017-12-15T20:12:26.783Z,-0.12
2017-12-15T20:14:59.270Z,-0.06
2017-12-15T20:17:31.770Z,-0.09
2017-12-15T20:20:04.277Z,-0.13
2017-12-15T20:22:39.395Z,-0.08
2017-12-15T20:25:11.882Z,-0.04
2017-12-15T20:27:44.387Z,-0.01
2017-12-15T20:30:16.871Z,0.01
2017-12-15T20:32:49.431Z,-0.01
2017-12-15T20:35:21.929Z,0.02
2017-12-15T20:37:54.444Z,0.07
2017-12-15T20:40:26.911Z,0.08
2017-12-15T20:42:59.431Z,0.08
2017-12-15T20:45:31.997Z,0.06
2017-12-15T20:48:04.575Z,-0.01
2017-12-15T20:50:37.352Z,-0.13
2017-12-15T20:53:09.918Z,-0.20
2017-12-15T20:55:42.423Z,-0.15
2017-12-15T20:58:15.091Z,-0.14
2017-12-15T21:00:48.655Z,-0.22
2017-12-15T21:03:21.256Z,-0.22
2017-12-15T21:05:53.934Z,-0.15
2017-12-15T21:08:26.575Z,-0.09
2017-12-15T21:10:59.834Z,-0.14
2017-12-15T21:13:32.516Z,-0.09
2017-12-15T21:16:05.024Z,-0.05
2017-12-15T21:18:39.713Z,0.02
2017-12-15T21:21:13.147Z,0.04
2017-12-15T21:23:45.880Z,0.06
2017-12-15T21:26:18.643Z,0.11
2017-12-15T21:28:51.212Z,0.15
2017-12-15T21:31:25.056Z,0.18
2017-12-15T21:33:59.244Z,0.22
2017-12-15T21:36:31.788Z,0.24
2017-12-15T21:39:04.567Z,0.25
2017-12-15T21:41:38.660Z,0.28
2017-12-15T21:44:11.159Z,0.26
2017-12-15T21:46:43.639Z,0.16
2017-12-15T21:49:16.588Z,0.09
2017-12-15T21:51:49.355Z,0.08
2017-12-15T21:54:22.250Z,0.11
2017-12-15T21:56:54.768Z,0.12
2017-12-15T21:59:27.276Z,0.10
2017-12-15T22:01:59.758Z,0.12
2017-12-15T22:04:32.274Z,0.16
2017-12-15T22:07:04.764Z,0.19
2017-12-15T22:09:37.493Z,0.19
2017-12-15T22:12:09.976Z,0.20
2017-12-15T22:14:42.475Z,0.21
2017-12-15T22:17:14.966Z,0.24
2017-12-15T22:19:47.467Z,0.25
2017-12-15T22:22:19.952Z,0.26
2017-12-15T22:24:52.569Z,0.25
2017-12-15T22:27:25.744Z,0.28
2017-12-15T22:29:58.292Z,0.30
2017-12-15T22:32:30.768Z,0.35
2017-12-15T22:35:03.331Z,0.35
2017-12-15T22:37:35.809Z,0.37
2017-12-15T22:40:08.310Z,0.38
2017-12-15T22:42:40.791Z,0.39
2017-12-15T22:45:13.408Z,0.41
2017-12-15T22:47:45.884Z,0.34
2017-12-15T22:50:18.396Z,0.30
2017-12-15T22:52:50.872Z,0.30
2017-12-15T22:55:23.383Z,0.33
2017-12-15T22:57:55.877Z,0.34
2017-12-15T23:00:28.376Z,0.36
2017-12-15T23:03:00.855Z,0.37
2017-12-15T23:05:33.364Z,0.37
2017-12-15T23:08:05.848Z,0.39
2017-12-15T23:10:38.347Z,0.41
2017-12-15T23:13:10.828Z,0.36
2017-12-15T23:15:43.332Z,0.36
2017-12-15T23:18:15.815Z,0.35
2017-12-15T23:20:48.320Z,0.36
2017-12-15T23:23:20.800Z,0.36
2017-12-15T23:25:53.348Z,0.36
2017-12-15T23:28:25.828Z,0.38
2017-12-15T23:30:58.803Z,0.40
2017-12-15T23:33:31.302Z,0.38
2017-12-15T23:36:03.799Z,0.40
2017-12-15T23:38:36.282Z,0.38
2017-12-15T23:41:11.464Z,0.36
2017-12-15T23:43:43.947Z,0.37
2017-12-15T23:46:16.451Z,0.38
2017-12-15T23:48:48.931Z,0.40
2017-12-15T23:51:21.453Z,0.43
2017-12-15T23:53:53.994Z,0.47
2017-12-15T23:56:38.265Z,0.45
2017-12-15T23:59:10.866Z,0.44
